sensor_id;sensor_type;location;lat;lon;timestamp;P1;durP1;ratioP1;P2;durP2;ratioP2
13204;SDS011;6667;52.634;9.226;2024-03-08T00:01:41;17.63;;;10.33;;
13204;SDS011;6667;52.634;9.226;2024-03-08T00:04:11;18.80;;;11.17;;
13204;SDS011;6667;52.634;9.226;2024-03-08T00:06:37;16.77;;;10.33;;
13204;SDS011;6667;52.634;9.226;2024-03-08T00:09:05;18.47;;;10.83;;
13204;SDS011;6667;52.634;9.226;2024-03-08T00:11:32;19.27;;;11.10;;
13204;SDS011;6667;52.634;9.226;2024-03-08T00:13:59;21.13;;;10.70;;
13204;SDS011;6667;52.634;9.226;2024-03-08T00:16:26;20.30;;;10.63;;
13204;SDS011;6667;52.634;9.226;2024-03-08T00:18:53;21.77;;;10.87;;
13204;SDS011;6667;52.634;9.226;2024-03-08T00:21:21;18.60;;;10.60;;
13204;SDS011;6667;52.634;9.226;2024-03-08T00:23:48;21.40;;;11.03;;
13204;SDS011;6667;52.634;9.226;2024-03-08T00:26:15;18.90;;;10.50;;
13204;SDS011;6667;52.634;9.226;2024-03-08T00:28:41;15.87;;;10.33;;
13204;SDS011;6667;52.634;9.226;2024-03-08T00:31:08;18.00;;;10.20;;
13204;SDS011;6667;52.634;9.226;2024-03-08T00:33:34;18.43;;;11.37;;
13204;SDS011;6667;52.634;9.226;2024-03-08T00:36:01;20.20;;;11.10;;
13204;SDS011;6667;52.634;9.226;2024-03-08T00:38:30;16.33;;;9.97;;
13204;SDS011;6667;52.634;9.226;2024-03-08T00:40:56;18.87;;;10.70;;
13204;SDS011;6667;52.634;9.226;2024-03-08T00:43:23;20.23;;;11.30;;
13204;SDS011;6667;52.634;9.226;2024-03-08T00:45:49;19.90;;;10.97;;
13204;SDS011;6667;52.634;9.226;2024-03-08T00:48:16;16.13;;;10.03;;
13204;SDS011;6667;52.634;9.226;2024-03-08T00:50:43;19.37;;;10.00;;
13204;SDS011;6667;52.634;9.226;2024-03-08T00:53:10;19.40;;;10.87;;
13204;SDS011;6667;52.634;9.226;2024-03-08T00:55:38;17.87;;;10.37;;
13204;SDS011;6667;52.634;9.226;2024-03-08T00:58:05;19.37;;;10.27;;
13204;SDS011;6667;52.634;9.226;2024-03-08T01:00:33;17.97;;;10.03;;
13204;SDS011;6667;52.634;9.226;2024-03-08T01:03:00;18.77;;;10.70;;
13204;SDS011;6667;52.634;9.226;2024-03-08T01:05:28;17.30;;;10.13;;
13204;SDS011;6667;52.634;9.226;2024-03-08T01:07:55;17.87;;;10.80;;
13204;SDS011;6667;52.634;9.226;2024-03-08T01:10:21;18.70;;;10.67;;
13204;SDS011;6667;52.634;9.226;2024-03-08T01:12:49;18.13;;;11.33;;
13204;SDS011;6667;52.634;9.226;2024-03-08T01:15:16;19.93;;;11.07;;
13204;SDS011;6667;52.634;9.226;2024-03-08T01:17:43;19.40;;;10.90;;
13204;SDS011;6667;52.634;9.226;2024-03-08T01:20:10;18.60;;;10.77;;
13204;SDS011;6667;52.634;9.226;2024-03-08T01:22:37;17.33;;;11.10;;
13204;SDS011;6667;52.634;9.226;2024-03-08T01:25:04;18.87;;;11.17;;
13204;SDS011;6667;52.634;9.226;2024-03-08T01:27:31;19.47;;;11.17;;
13204;SDS011;6667;52.634;9.226;2024-03-08T01:29:58;16.77;;;10.00;;
13204;SDS011;6667;52.634;9.226;2024-03-08T01:32:25;19.03;;;11.00;;
13204;SDS011;6667;52.634;9.226;2024-03-08T01:34:52;19.40;;;11.07;;
13204;SDS011;6667;52.634;9.226;2024-03-08T01:37:18;23.20;;;12.83;;
13204;SDS011;6667;52.634;9.226;2024-03-08T01:39:45;22.47;;;11.83;;
13204;SDS011;6667;52.634;9.226;2024-03-08T01:42:11;16.33;;;10.67;;
13204;SDS011;6667;52.634;9.226;2024-03-08T01:44:40;18.00;;;10.40;;
13204;SDS011;6667;52.634;9.226;2024-03-08T01:47:10;19.63;;;11.03;;
13204;SDS011;6667;52.634;9.226;2024-03-08T01:49:37;19.50;;;10.93;;
13204;SDS011;6667;52.634;9.226;2024-03-08T01:52:04;20.53;;;11.37;;
13204;SDS011;6667;52.634;9.226;2024-03-08T01:54:31;19.93;;;11.37;;
13204;SDS011;6667;52.634;9.226;2024-03-08T01:56:58;21.73;;;11.83;;
13204;SDS011;6667;52.634;9.226;2024-03-08T01:59:25;22.93;;;11.77;;
13204;SDS011;6667;52.634;9.226;2024-03-08T02:01:52;22.90;;;12.17;;
13204;SDS011;6667;52.634;9.226;2024-03-08T02:04:23;18.80;;;10.73;;
13204;SDS011;6667;52.634;9.226;2024-03-08T02:06:50;22.97;;;12.17;;
13204;SDS011;6667;52.634;9.226;2024-03-08T02:09:16;19.17;;;11.93;;
13204;SDS011;6667;52.634;9.226;2024-03-08T02:11:43;22.93;;;11.77;;
13204;SDS011;6667;52.634;9.226;2024-03-08T02:14:11;19.10;;;11.13;;
13204;SDS011;6667;52.634;9.226;2024-03-08T02:16:37;18.83;;;11.03;;
13204;SDS011;6667;52.634;9.226;2024-03-08T02:19:04;21.77;;;11.63;;
13204;SDS011;6667;52.634;9.226;2024-03-08T02:21:36;19.37;;;10.63;;
13204;SDS011;6667;52.634;9.226;2024-03-08T02:24:03;21.63;;;11.43;;
13204;SDS011;6667;52.634;9.226;2024-03-08T02:26:30;20.40;;;10.93;;
13204;SDS011;6667;52.634;9.226;2024-03-08T02:28:57;20.07;;;11.93;;
13204;SDS011;6667;52.634;9.226;2024-03-08T02:31:23;21.43;;;11.23;;
13204;SDS011;6667;52.634;9.226;2024-03-08T02:33:50;20.47;;;10.73;;
13204;SDS011;6667;52.634;9.226;2024-03-08T02:36:17;20.00;;;11.87;;
13204;SDS011;6667;52.634;9.226;2024-03-08T02:38:45;23.13;;;12.20;;
13204;SDS011;6667;52.634;9.226;2024-03-08T02:41:11;22.70;;;11.70;;
13204;SDS011;6667;52.634;9.226;2024-03-08T02:43:38;23.97;;;12.03;;
13204;SDS011;6667;52.634;9.226;2024-03-08T02:46:04;21.97;;;11.57;;
13204;SDS011;6667;52.634;9.226;2024-03-08T02:48:31;19.13;;;11.57;;
13204;SDS011;6667;52.634;9.226;2024-03-08T02:50:58;22.30;;;12.00;;
13204;SDS011;6667;52.634;9.226;2024-03-08T02:53:24;19.87;;;11.67;;
13204;SDS011;6667;52.634;9.226;2024-03-08T02:55:52;21.13;;;11.53;;
13204;SDS011;6667;52.634;9.226;2024-03-08T02:58:20;25.23;;;11.70;;
13204;SDS011;6667;52.634;9.226;2024-03-08T03:00:46;18.63;;;10.57;;
13204;SDS011;6667;52.634;9.226;2024-03-08T03:03:13;20.37;;;11.30;;
13204;SDS011;6667;52.634;9.226;2024-03-08T03:05:40;21.37;;;11.30;;
13204;SDS011;6667;52.634;9.226;2024-03-08T03:08:07;19.40;;;10.93;;
13204;SDS011;6667;52.634;9.226;2024-03-08T03:10:34;21.60;;;10.87;;
13204;SDS011;6667;52.634;9.226;2024-03-08T03:13:02;20.40;;;11.07;;
13204;SDS011;6667;52.634;9.226;2024-03-08T03:15:30;20.93;;;11.17;;
13204;SDS011;6667;52.634;9.226;2024-03-08T03:17:58;20.40;;;11.60;;
13204;SDS011;6667;52.634;9.226;2024-03-08T03:20:25;20.67;;;11.73;;
13204;SDS011;6667;52.634;9.226;2024-03-08T03:22:57;22.87;;;13.40;;
13204;SDS011;6667;52.634;9.226;2024-03-08T03:25:26;20.90;;;11.43;;
13204;SDS011;6667;52.634;9.226;2024-03-08T03:27:58;21.63;;;11.93;;
13204;SDS011;6667;52.634;9.226;2024-03-08T03:30:27;21.10;;;12.43;;
13204;SDS011;6667;52.634;9.226;2024-03-08T03:32:58;22.63;;;12.30;;
13204;SDS011;6667;52.634;9.226;2024-03-08T03:35:26;21.40;;;12.30;;
13204;SDS011;6667;52.634;9.226;2024-03-08T03:37:53;17.77;;;11.93;;
13204;SDS011;6667;52.634;9.226;2024-03-08T03:40:28;23.00;;;13.10;;
13204;SDS011;6667;52.634;9.226;2024-03-08T03:42:56;22.63;;;11.40;;
13204;SDS011;6667;52.634;9.226;2024-03-08T03:45:23;22.23;;;12.13;;
13204;SDS011;6667;52.634;9.226;2024-03-08T03:47:51;22.50;;;12.00;;
13204;SDS011;6667;52.634;9.226;2024-03-08T03:50:18;19.90;;;12.60;;
13204;SDS011;6667;52.634;9.226;2024-03-08T03:52:45;26.17;;;12.63;;
13204;SDS011;6667;52.634;9.226;2024-03-08T03:55:11;21.17;;;11.23;;
13204;SDS011;6667;52.634;9.226;2024-03-08T03:57:38;20.97;;;11.27;;
13204;SDS011;6667;52.634;9.226;2024-03-08T04:00:05;22.27;;;12.27;;
13204;SDS011;6667;52.634;9.226;2024-03-08T04:02:35;19.73;;;11.40;;
13204;SDS011;6667;52.634;9.226;2024-03-08T04:05:03;22.37;;;11.87;;
13204;SDS011;6667;52.634;9.226;2024-03-08T04:07:31;21.60;;;11.90;;
13204;SDS011;6667;52.634;9.226;2024-03-08T04:09:57;23.63;;;12.33;;
13204;SDS011;6667;52.634;9.226;2024-03-08T04:12:24;22.03;;;12.63;;
13204;SDS011;6667;52.634;9.226;2024-03-08T04:14:50;23.63;;;13.13;;
13204;SDS011;6667;52.634;9.226;2024-03-08T04:17:18;21.70;;;12.43;;
13204;SDS011;6667;52.634;9.226;2024-03-08T04:19:45;20.33;;;12.27;;
13204;SDS011;6667;52.634;9.226;2024-03-08T04:22:12;21.70;;;12.30;;
13204;SDS011;6667;52.634;9.226;2024-03-08T04:24:38;22.43;;;12.63;;
13204;SDS011;6667;52.634;9.226;2024-03-08T04:27:05;22.60;;;11.70;;
13204;SDS011;6667;52.634;9.226;2024-03-08T04:29:32;26.70;;;13.13;;
13204;SDS011;6667;52.634;9.226;2024-03-08T04:31:59;22.00;;;12.57;;
13204;SDS011;6667;52.634;9.226;2024-03-08T04:34:28;23.70;;;12.23;;
13204;SDS011;6667;52.634;9.226;2024-03-08T04:36:56;21.73;;;12.73;;
13204;SDS011;6667;52.634;9.226;2024-03-08T04:39:24;22.30;;;12.03;;
13204;SDS011;6667;52.634;9.226;2024-03-08T04:41:53;23.63;;;13.13;;
13204;SDS011;6667;52.634;9.226;2024-03-08T04:44:21;23.50;;;12.97;;
13204;SDS011;6667;52.634;9.226;2024-03-08T04:46:49;25.17;;;13.30;;
13204;SDS011;6667;52.634;9.226;2024-03-08T04:49:16;20.67;;;11.20;;
13204;SDS011;6667;52.634;9.226;2024-03-08T04:51:42;23.73;;;11.47;;
13204;SDS011;6667;52.634;9.226;2024-03-08T04:54:11;21.80;;;12.03;;
13204;SDS011;6667;52.634;9.226;2024-03-08T04:56:39;24.37;;;12.60;;
13204;SDS011;6667;52.634;9.226;2024-03-08T04:59:06;23.30;;;13.00;;
13204;SDS011;6667;52.634;9.226;2024-03-08T05:01:33;29.03;;;13.33;;
13204;SDS011;6667;52.634;9.226;2024-03-08T05:04:01;25.90;;;13.80;;
13204;SDS011;6667;52.634;9.226;2024-03-08T05:06:28;22.90;;;12.97;;
13204;SDS011;6667;52.634;9.226;2024-03-08T05:08:55;21.40;;;12.20;;
13204;SDS011;6667;52.634;9.226;2024-03-08T05:11:22;23.33;;;12.67;;
13204;SDS011;6667;52.634;9.226;2024-03-08T05:13:50;23.23;;;13.30;;
13204;SDS011;6667;52.634;9.226;2024-03-08T05:16:16;24.70;;;13.27;;
13204;SDS011;6667;52.634;9.226;2024-03-08T05:18:43;24.80;;;12.17;;
13204;SDS011;6667;52.634;9.226;2024-03-08T05:21:11;20.40;;;11.97;;
13204;SDS011;6667;52.634;9.226;2024-03-08T05:23:38;26.47;;;13.17;;
13204;SDS011;6667;52.634;9.226;2024-03-08T05:26:05;24.50;;;13.43;;
13204;SDS011;6667;52.634;9.226;2024-03-08T05:28:31;25.40;;;12.90;;
13204;SDS011;6667;52.634;9.226;2024-03-08T05:30:59;27.00;;;14.30;;
13204;SDS011;6667;52.634;9.226;2024-03-08T05:33:26;24.10;;;12.70;;
13204;SDS011;6667;52.634;9.226;2024-03-08T05:35:54;23.90;;;13.40;;
13204;SDS011;6667;52.634;9.226;2024-03-08T05:38:20;27.43;;;14.87;;
13204;SDS011;6667;52.634;9.226;2024-03-08T05:40:47;25.10;;;14.17;;
13204;SDS011;6667;52.634;9.226;2024-03-08T05:43:14;26.33;;;13.10;;
13204;SDS011;6667;52.634;9.226;2024-03-08T05:45:42;24.10;;;14.03;;
13204;SDS011;6667;52.634;9.226;2024-03-08T05:48:10;25.97;;;14.53;;
13204;SDS011;6667;52.634;9.226;2024-03-08T05:50:37;25.63;;;13.67;;
13204;SDS011;6667;52.634;9.226;2024-03-08T05:53:04;27.70;;;14.07;;
13204;SDS011;6667;52.634;9.226;2024-03-08T05:55:31;24.80;;;13.80;;
13204;SDS011;6667;52.634;9.226;2024-03-08T05:58:00;25.93;;;14.60;;
13204;SDS011;6667;52.634;9.226;2024-03-08T06:00:27;25.67;;;14.17;;
13204;SDS011;6667;52.634;9.226;2024-03-08T06:02:53;27.67;;;14.97;;
13204;SDS011;6667;52.634;9.226;2024-03-08T06:05:22;24.87;;;15.03;;
13204;SDS011;6667;52.634;9.226;2024-03-08T06:07:49;28.07;;;15.10;;
13204;SDS011;6667;52.634;9.226;2024-03-08T06:10:18;28.13;;;15.20;;
13204;SDS011;6667;52.634;9.226;2024-03-08T06:12:45;25.67;;;14.90;;
13204;SDS011;6667;52.634;9.226;2024-03-08T06:15:12;26.63;;;14.93;;
13204;SDS011;6667;52.634;9.226;2024-03-08T06:17:40;27.90;;;15.10;;
13204;SDS011;6667;52.634;9.226;2024-03-08T06:20:06;25.27;;;15.37;;
13204;SDS011;6667;52.634;9.226;2024-03-08T06:22:39;26.87;;;15.60;;
13204;SDS011;6667;52.634;9.226;2024-03-08T06:25:06;27.50;;;15.03;;
13204;SDS011;6667;52.634;9.226;2024-03-08T06:27:33;32.47;;;15.97;;
13204;SDS011;6667;52.634;9.226;2024-03-08T06:30:00;28.43;;;15.53;;
13204;SDS011;6667;52.634;9.226;2024-03-08T06:32:27;32.30;;;16.83;;
13204;SDS011;6667;52.634;9.226;2024-03-08T06:34:53;30.93;;;17.33;;
13204;SDS011;6667;52.634;9.226;2024-03-08T06:37:20;27.87;;;16.63;;
13204;SDS011;6667;52.634;9.226;2024-03-08T06:39:50;34.03;;;16.43;;
13204;SDS011;6667;52.634;9.226;2024-03-08T06:42:16;27.13;;;16.03;;
13204;SDS011;6667;52.634;9.226;2024-03-08T06:44:43;30.80;;;17.63;;
13204;SDS011;6667;52.634;9.226;2024-03-08T06:47:14;30.60;;;16.93;;
13204;SDS011;6667;52.634;9.226;2024-03-08T06:49:41;29.43;;;17.20;;
13204;SDS011;6667;52.634;9.226;2024-03-08T06:52:07;32.97;;;17.90;;
13204;SDS011;6667;52.634;9.226;2024-03-08T06:54:34;28.57;;;16.80;;
13204;SDS011;6667;52.634;9.226;2024-03-08T06:57:03;26.60;;;17.00;;
13204;SDS011;6667;52.634;9.226;2024-03-08T06:59:30;33.70;;;16.57;;
13204;SDS011;6667;52.634;9.226;2024-03-08T07:01:57;29.03;;;15.83;;
13204;SDS011;6667;52.634;9.226;2024-03-08T07:04:24;28.53;;;15.47;;
13204;SDS011;6667;52.634;9.226;2024-03-08T07:06:53;29.80;;;16.57;;
13204;SDS011;6667;52.634;9.226;2024-03-08T07:09:20;30.83;;;16.10;;
13204;SDS011;6667;52.634;9.226;2024-03-08T07:11:47;29.87;;;15.70;;
13204;SDS011;6667;52.634;9.226;2024-03-08T07:14:20;29.00;;;16.83;;
13204;SDS011;6667;52.634;9.226;2024-03-08T07:16:47;28.97;;;16.37;;
13204;SDS011;6667;52.634;9.226;2024-03-08T07:19:14;33.33;;;17.87;;
13204;SDS011;6667;52.634;9.226;2024-03-08T07:21:41;29.90;;;16.23;;
13204;SDS011;6667;52.634;9.226;2024-03-08T07:24:09;30.27;;;16.20;;
13204;SDS011;6667;52.634;9.226;2024-03-08T07:26:52;29.10;;;16.20;;
13204;SDS011;6667;52.634;9.226;2024-03-08T07:29:21;28.53;;;17.67;;
13204;SDS011;6667;52.634;9.226;2024-03-08T07:31:48;28.50;;;16.90;;
13204;SDS011;6667;52.634;9.226;2024-03-08T07:34:26;29.87;;;16.30;;
13204;SDS011;6667;52.634;9.226;2024-03-08T07:36:52;36.00;;;16.30;;
13204;SDS011;6667;52.634;9.226;2024-03-08T07:39:21;28.97;;;16.87;;
13204;SDS011;6667;52.634;9.226;2024-03-08T07:41:48;32.50;;;17.17;;
13204;SDS011;6667;52.634;9.226;2024-03-08T07:44:17;29.90;;;15.23;;
13204;SDS011;6667;52.634;9.226;2024-03-08T07:46:45;27.40;;;15.27;;
13204;SDS011;6667;52.634;9.226;2024-03-08T07:49:12;27.30;;;16.13;;
13204;SDS011;6667;52.634;9.226;2024-03-08T07:51:40;25.53;;;15.93;;
13204;SDS011;6667;52.634;9.226;2024-03-08T07:54:06;25.33;;;16.13;;
13204;SDS011;6667;52.634;9.226;2024-03-08T07:56:34;24.33;;;15.63;;
13204;SDS011;6667;52.634;9.226;2024-03-08T07:59:01;30.80;;;17.57;;
13204;SDS011;6667;52.634;9.226;2024-03-08T08:01:28;25.63;;;15.90;;
13204;SDS011;6667;52.634;9.226;2024-03-08T08:03:56;29.27;;;16.03;;
13204;SDS011;6667;52.634;9.226;2024-03-08T08:06:23;28.60;;;16.63;;
13204;SDS011;6667;52.634;9.226;2024-03-08T08:08:50;26.70;;;15.40;;
13204;SDS011;6667;52.634;9.226;2024-03-08T08:11:17;31.27;;;16.77;;
13204;SDS011;6667;52.634;9.226;2024-03-08T08:13:43;28.67;;;16.53;;
13204;SDS011;6667;52.634;9.226;2024-03-08T08:16:10;27.53;;;15.63;;
13204;SDS011;6667;52.634;9.226;2024-03-08T08:18:38;29.60;;;15.93;;
13204;SDS011;6667;52.634;9.226;2024-03-08T08:21:07;25.70;;;14.60;;
13204;SDS011;6667;52.634;9.226;2024-03-08T08:23:33;27.77;;;15.83;;
13204;SDS011;6667;52.634;9.226;2024-03-08T08:26:00;26.23;;;15.37;;
13204;SDS011;6667;52.634;9.226;2024-03-08T08:28:28;26.63;;;15.53;;
13204;SDS011;6667;52.634;9.226;2024-03-08T08:30:55;24.93;;;15.57;;
13204;SDS011;6667;52.634;9.226;2024-03-08T08:33:22;25.53;;;15.13;;
13204;SDS011;6667;52.634;9.226;2024-03-08T08:35:50;26.60;;;15.50;;
13204;SDS011;6667;52.634;9.226;2024-03-08T08:38:20;25.80;;;16.03;;
13204;SDS011;6667;52.634;9.226;2024-03-08T08:40:46;25.90;;;16.27;;
13204;SDS011;6667;52.634;9.226;2024-03-08T08:43:13;23.77;;;14.60;;
13204;SDS011;6667;52.634;9.226;2024-03-08T08:45:40;23.07;;;14.23;;
13204;SDS011;6667;52.634;9.226;2024-03-08T08:48:07;24.60;;;14.77;;
13204;SDS011;6667;52.634;9.226;2024-03-08T08:50:35;23.57;;;14.60;;
13204;SDS011;6667;52.634;9.226;2024-03-08T08:53:02;22.37;;;14.10;;
13204;SDS011;6667;52.634;9.226;2024-03-08T08:55:33;24.93;;;14.40;;
13204;SDS011;6667;52.634;9.226;2024-03-08T08:58:00;21.93;;;13.57;;
13204;SDS011;6667;52.634;9.226;2024-03-08T09:00:28;26.37;;;15.60;;
13204;SDS011;6667;52.634;9.226;2024-03-08T09:02:56;26.53;;;14.77;;
13204;SDS011;6667;52.634;9.226;2024-03-08T09:05:23;22.57;;;14.97;;
13204;SDS011;6667;52.634;9.226;2024-03-08T09:07:51;21.53;;;14.37;;
13204;SDS011;6667;52.634;9.226;2024-03-08T09:10:18;26.63;;;14.53;;
13204;SDS011;6667;52.634;9.226;2024-03-08T09:12:45;22.43;;;14.77;;
13204;SDS011;6667;52.634;9.226;2024-03-08T09:15:12;21.63;;;14.13;;
13204;SDS011;6667;52.634;9.226;2024-03-08T09:17:39;24.53;;;15.20;;
13204;SDS011;6667;52.634;9.226;2024-03-08T09:20:06;23.27;;;15.13;;
13204;SDS011;6667;52.634;9.226;2024-03-08T09:22:33;21.13;;;13.97;;
13204;SDS011;6667;52.634;9.226;2024-03-08T09:25:00;22.70;;;14.17;;
13204;SDS011;6667;52.634;9.226;2024-03-08T09:27:27;24.03;;;15.07;;
13204;SDS011;6667;52.634;9.226;2024-03-08T09:29:55;24.93;;;15.93;;
13204;SDS011;6667;52.634;9.226;2024-03-08T09:32:21;22.77;;;14.80;;
13204;SDS011;6667;52.634;9.226;2024-03-08T09:34:48;21.93;;;14.60;;
13204;SDS011;6667;52.634;9.226;2024-03-08T09:37:15;20.67;;;15.03;;
13204;SDS011;6667;52.634;9.226;2024-03-08T09:39:42;24.07;;;16.47;;
13204;SDS011;6667;52.634;9.226;2024-03-08T09:42:09;21.73;;;15.20;;
13204;SDS011;6667;52.634;9.226;2024-03-08T09:44:39;22.80;;;14.10;;
13204;SDS011;6667;52.634;9.226;2024-03-08T09:47:11;22.27;;;15.77;;
13204;SDS011;6667;52.634;9.226;2024-03-08T09:49:39;24.70;;;14.83;;
13204;SDS011;6667;52.634;9.226;2024-03-08T09:52:06;23.83;;;14.93;;
13204;SDS011;6667;52.634;9.226;2024-03-08T09:54:33;25.13;;;14.97;;
13204;SDS011;6667;52.634;9.226;2024-03-08T09:57:00;20.57;;;15.00;;
13204;SDS011;6667;52.634;9.226;2024-03-08T09:59:29;20.97;;;14.63;;
13204;SDS011;6667;52.634;9.226;2024-03-08T10:02:16;25.20;;;15.87;;
13204;SDS011;6667;52.634;9.226;2024-03-08T10:04:43;24.30;;;14.77;;
13204;SDS011;6667;52.634;9.226;2024-03-08T10:07:12;19.30;;;13.23;;
13204;SDS011;6667;52.634;9.226;2024-03-08T10:09:39;22.60;;;15.30;;
13204;SDS011;6667;52.634;9.226;2024-03-08T10:12:07;23.40;;;14.37;;
13204;SDS011;6667;52.634;9.226;2024-03-08T10:14:38;23.67;;;14.67;;
13204;SDS011;6667;52.634;9.226;2024-03-08T10:17:07;23.07;;;15.00;;
13204;SDS011;6667;52.634;9.226;2024-03-08T10:19:35;22.17;;;15.70;;
13204;SDS011;6667;52.634;9.226;2024-03-08T10:22:02;22.13;;;15.50;;
13204;SDS011;6667;52.634;9.226;2024-03-08T10:24:29;24.73;;;15.83;;
13204;SDS011;6667;52.634;9.226;2024-03-08T10:26:58;23.03;;;15.20;;
13204;SDS011;6667;52.634;9.226;2024-03-08T10:29:25;20.53;;;14.80;;
13204;SDS011;6667;52.634;9.226;2024-03-08T10:31:53;24.30;;;16.23;;
13204;SDS011;6667;52.634;9.226;2024-03-08T10:34:20;21.33;;;15.63;;
13204;SDS011;6667;52.634;9.226;2024-03-08T10:36:50;19.40;;;13.57;;
13204;SDS011;6667;52.634;9.226;2024-03-08T10:39:20;23.23;;;15.93;;
13204;SDS011;6667;52.634;9.226;2024-03-08T10:41:50;22.60;;;16.40;;
13204;SDS011;6667;52.634;9.226;2024-03-08T10:44:23;22.43;;;16.43;;
13204;SDS011;6667;52.634;9.226;2024-03-08T10:47:07;20.93;;;14.93;;
13204;SDS011;6667;52.634;9.226;2024-03-08T10:49:44;19.50;;;12.77;;
13204;SDS011;6667;52.634;9.226;2024-03-08T10:52:23;21.93;;;14.97;;
13204;SDS011;6667;52.634;9.226;2024-03-08T10:54:50;22.27;;;15.07;;
13204;SDS011;6667;52.634;9.226;2024-03-08T10:57:19;21.70;;;14.80;;
13204;SDS011;6667;52.634;9.226;2024-03-08T10:59:49;23.03;;;15.40;;
13204;SDS011;6667;52.634;9.226;2024-03-08T11:02:17;21.83;;;13.90;;
13204;SDS011;6667;52.634;9.226;2024-03-08T11:04:45;19.20;;;14.03;;
13204;SDS011;6667;52.634;9.226;2024-03-08T11:07:14;21.13;;;14.60;;
13204;SDS011;6667;52.634;9.226;2024-03-08T11:09:43;20.70;;;14.80;;
13204;SDS011;6667;52.634;9.226;2024-03-08T11:12:20;17.57;;;13.63;;
13204;SDS011;6667;52.634;9.226;2024-03-08T11:14:51;23.07;;;14.93;;
13204;SDS011;6667;52.634;9.226;2024-03-08T11:17:22;21.50;;;15.40;;
13204;SDS011;6667;52.634;9.226;2024-03-08T11:20:07;20.17;;;13.87;;
13204;SDS011;6667;52.634;9.226;2024-03-08T11:22:40;19.30;;;12.80;;
13204;SDS011;6667;52.634;9.226;2024-03-08T11:25:29;21.53;;;15.27;;
13204;SDS011;6667;52.634;9.226;2024-03-08T11:28:06;20.17;;;14.30;;
13204;SDS011;6667;52.634;9.226;2024-03-08T11:30:34;21.90;;;14.17;;
13204;SDS011;6667;52.634;9.226;2024-03-08T11:33:03;20.97;;;14.67;;
13204;SDS011;6667;52.634;9.226;2024-03-08T11:35:30;22.70;;;16.00;;
13204;SDS011;6667;52.634;9.226;2024-03-08T11:37:57;21.53;;;14.60;;
13204;SDS011;6667;52.634;9.226;2024-03-08T11:40:26;20.43;;;14.43;;
13204;SDS011;6667;52.634;9.226;2024-03-08T11:42:53;21.90;;;14.87;;
13204;SDS011;6667;52.634;9.226;2024-03-08T11:45:20;18.57;;;13.07;;
13204;SDS011;6667;52.634;9.226;2024-03-08T11:47:47;25.63;;;14.63;;
13204;SDS011;6667;52.634;9.226;2024-03-08T11:50:13;19.98;;;14.13;;
13204;SDS011;6667;52.634;9.226;2024-03-08T11:52:41;20.57;;;14.57;;
13204;SDS011;6667;52.634;9.226;2024-03-08T11:55:09;20.75;;;15.02;;
13204;SDS011;6667;52.634;9.226;2024-03-08T11:57:39;19.20;;;14.38;;
13204;SDS011;6667;52.634;9.226;2024-03-08T12:00:11;18.90;;;13.27;;
13204;SDS011;6667;52.634;9.226;2024-03-08T12:03:00;19.73;;;14.95;;
13204;SDS011;6667;52.634;9.226;2024-03-08T12:05:28;20.17;;;14.90;;
13204;SDS011;6667;52.634;9.226;2024-03-08T12:07:56;19.48;;;13.93;;
13204;SDS011;6667;52.634;9.226;2024-03-08T12:10:23;23.63;;;14.27;;
13204;SDS011;6667;52.634;9.226;2024-03-08T12:12:52;24.05;;;13.35;;
13204;SDS011;6667;52.634;9.226;2024-03-08T12:15:20;18.90;;;14.93;;
13204;SDS011;6667;52.634;9.226;2024-03-08T12:17:47;19.75;;;13.20;;
13204;SDS011;6667;52.634;9.226;2024-03-08T12:20:15;20.40;;;14.88;;
13204;SDS011;6667;52.634;9.226;2024-03-08T12:22:43;21.35;;;14.70;;
13204;SDS011;6667;52.634;9.226;2024-03-08T12:25:10;19.27;;;14.15;;
13204;SDS011;6667;52.634;9.226;2024-03-08T12:27:38;22.35;;;15.00;;
13204;SDS011;6667;52.634;9.226;2024-03-08T12:30:22;23.45;;;13.38;;
13204;SDS011;6667;52.634;9.226;2024-03-08T12:32:52;20.83;;;14.70;;
13204;SDS011;6667;52.634;9.226;2024-03-08T12:35:21;25.20;;;15.25;;
13204;SDS011;6667;52.634;9.226;2024-03-08T12:37:50;20.23;;;14.95;;
13204;SDS011;6667;52.634;9.226;2024-03-08T12:40:18;20.05;;;14.30;;
13204;SDS011;6667;52.634;9.226;2024-03-08T12:42:46;22.45;;;14.07;;
13204;SDS011;6667;52.634;9.226;2024-03-08T12:45:13;23.33;;;15.97;;
13204;SDS011;6667;52.634;9.226;2024-03-08T12:47:42;25.25;;;15.77;;
13204;SDS011;6667;52.634;9.226;2024-03-08T12:50:09;21.92;;;15.50;;
13204;SDS011;6667;52.634;9.226;2024-03-08T12:52:36;23.50;;;15.13;;
13204;SDS011;6667;52.634;9.226;2024-03-08T12:55:03;22.77;;;15.13;;
13204;SDS011;6667;52.634;9.226;2024-03-08T12:57:31;22.05;;;15.43;;
13204;SDS011;6667;52.634;9.226;2024-03-08T12:59:59;24.33;;;18.33;;
13204;SDS011;6667;52.634;9.226;2024-03-08T13:02:27;22.63;;;15.10;;
13204;SDS011;6667;52.634;9.226;2024-03-08T13:04:55;21.73;;;15.38;;
13204;SDS011;6667;52.634;9.226;2024-03-08T13:07:22;21.45;;;15.55;;
13204;SDS011;6667;52.634;9.226;2024-03-08T13:09:50;24.40;;;17.98;;
13204;SDS011;6667;52.634;9.226;2024-03-08T13:12:17;23.88;;;15.50;;
13204;SDS011;6667;52.634;9.226;2024-03-08T13:14:45;23.38;;;16.90;;
13204;SDS011;6667;52.634;9.226;2024-03-08T13:17:11;22.50;;;14.57;;
13204;SDS011;6667;52.634;9.226;2024-03-08T13:19:38;23.83;;;17.80;;
13204;SDS011;6667;52.634;9.226;2024-03-08T13:22:06;24.73;;;15.73;;
13204;SDS011;6667;52.634;9.226;2024-03-08T13:24:36;21.20;;;16.17;;
13204;SDS011;6667;52.634;9.226;2024-03-08T13:27:03;22.95;;;15.90;;
13204;SDS011;6667;52.634;9.226;2024-03-08T13:29:41;25.65;;;16.95;;
13204;SDS011;6667;52.634;9.226;2024-03-08T13:32:08;22.23;;;15.82;;
13204;SDS011;6667;52.634;9.226;2024-03-08T13:34:36;20.33;;;13.68;;
13204;SDS011;6667;52.634;9.226;2024-03-08T13:37:03;23.10;;;15.75;;
13204;SDS011;6667;52.634;9.226;2024-03-08T13:39:32;24.40;;;17.42;;
13204;SDS011;6667;52.634;9.226;2024-03-08T13:42:05;24.20;;;14.40;;
13204;SDS011;6667;52.634;9.226;2024-03-08T13:44:34;21.25;;;14.48;;
13204;SDS011;6667;52.634;9.226;2024-03-08T13:47:02;23.08;;;15.25;;
13204;SDS011;6667;52.634;9.226;2024-03-08T13:49:30;22.83;;;16.27;;
13204;SDS011;6667;52.634;9.226;2024-03-08T13:51:58;24.85;;;15.35;;
13204;SDS011;6667;52.634;9.226;2024-03-08T13:54:24;19.13;;;13.98;;
13204;SDS011;6667;52.634;9.226;2024-03-08T13:56:53;20.70;;;14.38;;
13204;SDS011;6667;52.634;9.226;2024-03-08T13:59:20;23.20;;;17.33;;
13204;SDS011;6667;52.634;9.226;2024-03-08T14:01:47;27.67;;;17.98;;
13204;SDS011;6667;52.634;9.226;2024-03-08T14:04:15;24.85;;;16.30;;
13204;SDS011;6667;52.634;9.226;2024-03-08T14:06:42;21.07;;;15.93;;
13204;SDS011;6667;52.634;9.226;2024-03-08T14:09:09;21.33;;;14.30;;
13204;SDS011;6667;52.634;9.226;2024-03-08T14:11:41;23.05;;;15.75;;
13204;SDS011;6667;52.634;9.226;2024-03-08T14:14:10;23.45;;;15.60;;
13204;SDS011;6667;52.634;9.226;2024-03-08T14:16:37;19.67;;;14.65;;
13204;SDS011;6667;52.634;9.226;2024-03-08T14:19:04;19.35;;;14.43;;
13204;SDS011;6667;52.634;9.226;2024-03-08T14:21:31;19.80;;;14.50;;
13204;SDS011;6667;52.634;9.226;2024-03-08T14:23:58;23.93;;;15.80;;
13204;SDS011;6667;52.634;9.226;2024-03-08T14:26:25;21.42;;;15.30;;
13204;SDS011;6667;52.634;9.226;2024-03-08T14:28:52;22.77;;;15.37;;
13204;SDS011;6667;52.634;9.226;2024-03-08T14:31:20;19.33;;;14.00;;
13204;SDS011;6667;52.634;9.226;2024-03-08T14:33:50;21.50;;;15.23;;
13204;SDS011;6667;52.634;9.226;2024-03-08T14:36:17;22.60;;;15.47;;
13204;SDS011;6667;52.634;9.226;2024-03-08T14:38:44;20.20;;;14.90;;